Time;durP1;ratioP1;P1;durP2;ratioP2;P2;SDS_P1;SDS_P2;PMS_P1;PMS_P2;Temp;Humidity;BMP_temperature;BMP_pressure;BME280_temperature;BME280_humidity;BME280_pressure;Samples;Min_cycle;Max_cycle;Signal;HPM_P1;HPM_P2
2022/06/09 00:00:28;;;;;;;3.38;1.55;;;;;;;16.15;100.00;99820.97;5181232;28;20014;-74
2022/06/09 00:03:04;;;;;;;2.88;1.33;;;;;;;16.24;100.00;99818.53;5181440;28;20576;-73
2022/06/09 00:05:37;;;;;;;3.10;1.70;;;;;;;16.24;100.00;99817.69;5173868;28;20030;-73
2022/06/09 00:08:09;;;;;;;5.45;2.20;;;;;;;16.37;100.00;99829.91;5177650;28;20033;-73
2022/06/09 00:10:49;;;;;;;3.78;1.33;;;;;;;16.37;100.00;99827.28;5175828;28;20030;-74
2022/06/09 00:13:20;;;;;;;3.38;1.50;;;;;;;16.31;100.00;99835.59;5173964;28;20372;-73
2022/06/09 00:15:50;;;;;;;6.13;1.60;;;;;;;16.25;100.00;99827.28;5179863;28;20030;-74
2022/06/09 00:18:22;;;;;;;4.18;1.45;;;;;;;16.14;100.00;99822.78;5180456;28;20037;-73
2022/06/09 00:20:53;;;;;;;5.35;1.55;;;;;;;16.02;100.00;99828.06;5181081;28;20050;-74
2022/06/09 00:23:23;;;;;;;3.28;1.40;;;;;;;15.88;100.00;99831.63;5165396;28;20057;-74
2022/06/09 00:25:53;;;;;;;3.30;1.38;;;;;;;16.06;100.00;99833.00;5165389;28;20154;-74
2022/06/09 00:28:24;;;;;;;4.40;1.58;;;;;;;16.14;100.00;99822.78;5169375;28;20096;-74
2022/06/09 00:30:54;;;;;;;4.00;1.50;;;;;;;16.06;100.00;99827.72;5174883;28;20038;-74
2022/06/09 00:33:25;;;;;;;2.60;1.33;;;;;;;16.04;100.00;99829.63;5181152;28;20018;-73
2022/06/09 00:35:55;;;;;;;5.13;1.40;;;;;;;16.02;100.00;99828.06;5181782;28;20231;-73
2022/06/09 00:38:25;;;;;;;3.83;1.42;;;;;;;15.79;100.00;99827.00;5180774;28;20048;-73
2022/06/09 00:40:58;;;;;;;5.57;1.30;;;;;;;15.79;100.00;99837.53;5175553;28;20029;-73
2022/06/09 00:43:30;;;;;;;4.95;1.50;;;;;;;15.93;100.00;99828.69;5174038;28;20068;-74
2022/06/09 00:46:06;;;;;;;4.68;1.35;;;;;;;15.74;100.00;99833.53;5163976;28;20030;-73
2022/06/09 00:48:44;;;;;;;2.40;1.52;;;;;;;15.87;100.00;99829.94;5170485;28;20069;-73
2022/06/09 00:51:23;;;;;;;4.93;1.30;;;;;;;15.90;100.00;99824.47;5181080;28;20080;-74
2022/06/09 00:54:11;;;;;;;3.53;1.50;;;;;;;15.87;100.00;99835.22;5170393;28;20480;-74
2022/06/09 00:56:51;;;;;;;5.55;1.60;;;;;;;15.80;100.00;99833.97;5165982;28;20041;-74
2022/06/09 00:59:26;;;;;;;6.05;1.90;;;;;;;15.90;100.00;99832.38;5167706;28;20510;-73
2022/06/09 01:01:59;;;;;;;6.05;1.50;;;;;;;15.70;100.00;99832.88;5169045;28;20032;-73
2022/06/09 01:04:31;;;;;;;5.78;1.50;;;;;;;15.72;100.00;99833.63;5167145;28;20611;-74
2022/06/09 01:07:26;;;;;;;5.75;1.65;;;;;;;15.76;100.00;99835.13;5167905;28;20115;-74
2022/06/09 01:09:56;;;;;;;3.75;1.50;;;;;;;15.94;100.00;99836.50;5168412;28;20083;-74
2022/06/09 01:12:35;;;;;;;6.60;1.80;;;;;;;15.92;100.00;99827.84;5165636;28;20030;-74
2022/06/09 01:15:19;;;;;;;4.18;1.38;;;;;;;16.03;100.00;99833.22;5168794;28;20399;-74
2022/06/09 01:18:24;;;;;;;5.35;1.50;;;;;;;16.05;100.00;99838.38;5165289;28;20523;-74
2022/06/09 01:21:04;;;;;;;4.30;1.60;;;;;;;15.94;100.00;99840.91;5167604;28;20044;-74
2022/06/09 01:24:03;;;;;;;3.42;1.65;;;;;;;16.16;100.00;99834.03;5159698;28;20033;-74
2022/06/09 01:26:54;;;;;;;4.75;1.63;;;;;;;16.25;100.00;99846.56;5166143;28;20026;-73
2022/06/09 01:29:42;;;;;;;4.38;1.80;;;;;;;16.18;100.00;99844.50;5165633;28;20119;-74
2022/06/09 01:32:18;;;;;;;4.40;2.10;;;;;;;16.14;100.00;99859.69;5161782;28;20034;-74
2022/06/09 01:35:09;;;;;;;;;;;;;;;16.19;100.00;99852.28;5168181;28;20030;-73
2022/06/09 01:37:51;;;;;;;4.63;2.33;;;;;;;16.16;100.00;99856.91;5165853;28;20028;-73
2022/06/09 01:40:21;;;;;;;5.35;2.20;;;;;;;16.16;100.00;99856.91;5166513;28;20022;-73
2022/06/09 01:42:55;;;;;;;4.22;2.30;;;;;;;16.15;100.00;99858.72;5167343;28;20038;-73
2022/06/09 01:45:48;;;;;;;6.18;2.22;;;;;;;16.20;100.00;99863.69;5166873;28;20037;-74
2022/06/09 01:48:24;;;;;;;5.57;2.55;;;;;;;16.23;100.00;99868.75;5172417;28;20488;-74
2022/06/09 01:51:13;;;;;;;6.70;2.60;;;;;;;16.14;100.00;99866.72;5180302;28;20099;-73
2022/06/09 01:54:04;;;;;;;6.18;3.13;;;;;;;16.26;100.00;99864.09;5167900;28;20026;-73
2022/06/09 01:56:45;;;;;;;3.83;2.35;;;;;;;16.27;100.00;99865.78;5171377;28;20045;-73
2022/06/09 01:59:24;;;;;;;4.15;2.08;;;;;;;16.18;100.00;99866.41;5178352;28;20018;-74
2022/06/09 02:02:03;;;;;;;4.63;2.47;;;;;;;16.23;100.00;99858.19;5180003;28;20061;-74
2022/06/09 02:04:37;;;;;;;5.07;2.50;;;;;;;16.21;100.00;99866.19;5179945;28;20025;-74
2022/06/09 02:07:09;;;;;;;5.28;2.88;;;;;;;16.24;100.00;99865.16;5172462;28;20041;-74
2022/06/09 02:09:40;;;;;;;4.38;2.80;;;;;;;16.18;100.00;99871.69;5177585;28;20026;-74
2022/06/09 02:12:16;;;;;;;4.65;2.90;;;;;;;16.21;100.00;99875.91;5171992;28;20517;-71
2022/06/09 02:14:49;;;;;;;4.38;2.70;;;;;;;16.22;100.00;99873.16;5177803;28;20025;-73
2022/06/09 02:17:20;;;;;;;3.80;2.83;;;;;;;16.16;100.00;99878.88;5181583;28;20038;-73
2022/06/09 02:19:52;;;;;;;3.70;2.78;;;;;;;16.05;100.00;99881.38;5184529;28;20052;-74
2022/06/09 02:22:22;;;;;;;6.13;3.40;;;;;;;15.96;100.00;99882.03;5184209;28;20029;-74
2022/06/09 02:24:52;;;;;;;6.95;3.50;;;;;;;16.06;100.00;99879.63;5174335;28;20623;-75
2022/06/09 02:27:23;;;;;;;6.38;3.70;;;;;;;15.98;100.00;99874.88;5180411;28;20061;-74
2022/06/09 02:29:53;;;;;;;4.90;3.65;;;;;;;15.98;100.00;99887.19;5182662;28;20377;-74
2022/06/09 02:32:23;;;;;;;9.23;3.97;;;;;;;15.97;100.00;99886.34;5184066;28;20030;-74
2022/06/09 02:34:54;;;;;;;8.70;4.13;;;;;;;15.87;100.00;99885.28;5183908;28;20033;-73
2022/06/09 02:37:24;;;;;;;6.57;4.15;;;;;;;15.95;100.00;99885.63;5184272;28;20184;-74
2022/06/09 02:39:54;;;;;;;7.53;4.30;;;;;;;15.98;100.00;99889.81;5179992;28;20437;-75
2022/06/09 02:42:25;;;;;;;6.70;4.90;;;;;;;16.00;100.00;99888.78;5175179;28;20018;-74
2022/06/09 02:44:55;;;;;;;9.95;5.05;;;;;;;15.93;100.00;99892.78;5181261;28;20116;-74
2022/06/09 02:47:25;;;;;;;7.30;4.88;;;;;;;15.92;100.00;99891.13;5182226;28;20080;-74
2022/06/09 02:49:56;;;;;;;7.88;5.25;;;;;;;15.74;100.00;99886.22;5183504;28;20025;-74
2022/06/09 02:52:26;;;;;;;7.65;5.60;;;;;;;15.83;100.00;99894.34;5183558;28;20026;-75
2022/06/09 02:54:56;;;;;;;6.93;5.10;;;;;;;15.80;100.00;99891.06;5169675;28;20121;-74
2022/06/09 02:57:29;;;;;;;9.27;6.45;;;;;;;15.82;100.00;99895.31;5179929;28;20025;-74
2022/06/09 02:59:59;;;;;;;9.95;5.85;;;;;;;15.83;100.00;99891.72;5183128;28;20064;-74
2022/06/09 03:02:30;;;;;;;9.45;6.03;;;;;;;15.70;100.00;99890.03;5183959;28;20506;-74
2022/06/09 03:05:00;;;;;;;9.15;6.15;;;;;;;15.73;100.00;99888.00;5183700;28;20113;-74
2022/06/09 03:07:31;;;;;;;9.13;6.10;;;;;;;15.84;100.00;99893.41;5183024;28;20475;-74
2022/06/09 03:10:01;;;;;;;11.02;7.03;;;;;;;15.77;100.00;99889.50;5179877;28;20503;-74
2022/06/09 03:12:32;;;;;;;12.70;6.53;;;;;;;15.74;100.00;99896.78;5173281;28;20542;-74
2022/06/09 03:15:07;;;;;;;8.82;6.57;;;;;;;15.72;100.00;99894.22;5183605;28;20476;-74
2022/06/09 03:17:38;;;;;;;;;;;;;;;15.66;100.00;99896.41;5176397;28;20026;-75
2022/06/09 03:20:12;;;;;;;11.00;7.20;;;;;;;15.64;100.00;99900.94;5182555;28;19919;-75
2022/06/09 03:22:43;;;;;;;10.63;7.60;;;;;;;15.74;100.00;99888.88;5180693;28;20272;-74
2022/06/09 03:25:14;;;;;;;10.65;7.20;;;;;;;15.66;100.00;99902.56;5171774;28;20028;-74
2022/06/09 03:27:44;;;;;;;11.07;6.78;;;;;;;15.77;100.00;99902.69;5178534;28;20030;-74
2022/06/09 03:30:16;;;;;;;15.23;7.00;;;;;;;15.76;100.00;99913.31;5182890;28;20498;-74
2022/06/09 03:32:46;;;;;;;11.50;7.05;;;;;;;15.65;100.00;99906.13;5182780;28;20030;-74
2022/06/09 03:35:18;;;;;;;12.15;7.35;;;;;;;15.76;100.00;99911.53;5183049;28;20037;-74
2022/06/09 03:37:48;;;;;;;10.55;6.70;;;;;;;15.79;100.00;99916.59;5182296;28;20028;-74
2022/06/09 03:40:20;;;;;;;14.05;7.38;;;;;;;15.92;100.00;99919.25;5179160;28;20484;-75
2022/06/09 03:42:51;;;;;;;9.88;7.22;;;;;;;15.84;100.00;99922.38;5172237;28;20026;-74
2022/06/09 03:45:21;;;;;;;9.88;6.65;;;;;;;16.06;100.00;99925.25;5177032;28;20498;-75
2022/06/09 03:47:51;;;;;;;10.95;7.60;;;;;;;15.96;100.00;99918.94;5182289;28;20034;-74
2022/06/09 03:50:24;;;;;;;10.30;6.97;;;;;;;16.15;100.00;99926.41;5182694;28;20449;-74
2022/06/09 03:52:55;;;;;;;10.15;6.47;;;;;;;16.17;100.00;99933.28;5180458;28;20024;-75
2022/06/09 03:55:26;;;;;;;10.95;7.55;;;;;;;16.04;100.00;99927.16;5171705;28;20022;-74
2022/06/09 03:57:56;;;;;;;12.30;7.78;;;;;;;15.99;100.00;99934.53;5180641;28;20029;-74
2022/06/09 04:00:29;;;;;;;12.25;7.78;;;;;;;16.12;100.00;99935.41;5182337;28;20371;-74
2022/06/09 04:03:00;;;;;;;13.43;6.93;;;;;;;16.21;100.00;99940.03;5182744;28;20025;-74
2022/06/09 04:05:31;;;;;;;14.50;7.90;;;;;;;16.10;100.00;99939.94;5180871;28;20088;-74
2022/06/09 04:08:03;;;;;;;13.27;8.57;;;;;;;16.24;100.00;99945.09;5163601;28;20029;-74
2022/06/09 04:10:34;;;;;;;14.38;8.35;;;;;;;16.30;100.00;99943.81;5168787;28;20026;-74
2022/06/09 04:13:05;;;;;;;15.75;8.50;;;;;;;16.23;100.00;99948.69;5164279;28;20076;-74
2022/06/09 04:15:36;;;;;;;18.48;9.63;;;;;;;16.09;100.00;99947.94;5170245;28;20519;-73
2022/06/09 04:18:08;;;;;;;16.05;9.02;;;;;;;16.27;100.00;99952.81;5164614;28;20480;-73
2022/06/09 04:20:38;;;;;;;13.55;8.90;;;;;;;16.14;100.00;99959.88;5163508;28;20480;-74
2022/06/09 04:23:09;;;;;;;15.15;9.55;;;;;;;16.18;100.00;99953.44;5163225;28;20034;-74
2022/06/09 04:25:39;;;;;;;13.32;9.02;;;;;;;16.23;100.00;99961.84;5165468;28;20038;-75
2022/06/09 04:28:09;;;;;;;14.18;9.30;;;;;;;16.13;100.00;99966.09;5178421;28;20025;-74
2022/06/09 04:30:40;;;;;;;15.35;9.43;;;;;;;16.00;100.00;99957.31;5180937;28;20463;-74
2022/06/09 04:33:10;;;;;;;15.02;9.40;;;;;;;16.07;100.00;99955.94;5180441;28;20483;-73
2022/06/09 04:35:40;;;;;;;15.18;8.93;;;;;;;16.16;100.00;99957.97;5182016;28;20062;-75
2022/06/09 04:38:12;;;;;;;16.42;9.05;;;;;;;16.23;100.00;99966.31;5180730;28;20486;-73
2022/06/09 04:40:42;;;;;;;12.65;8.90;;;;;;;16.19;100.00;99970.09;5175400;28;20037;-75
2022/06/09 04:43:12;;;;;;;19.88;8.95;;;;;;;16.05;100.00;99973.66;5174696;28;20022;-74
2022/06/09 04:45:43;;;;;;;14.43;9.32;;;;;;;16.09;100.00;99975.16;5180237;28;20495;-74
2022/06/09 04:48:13;;;;;;;15.95;9.07;;;;;;;16.02;100.00;99981.78;5181370;28;20029;-74
2022/06/09 04:50:43;;;;;;;16.13;9.27;;;;;;;16.11;100.00;99982.94;5181110;28;20042;-74
2022/06/09 04:53:14;;;;;;;15.20;9.02;;;;;;;16.08;100.00;99978.72;5177251;28;20089;-74
2022/06/09 04:55:44;;;;;;;17.88;8.93;;;;;;;16.18;100.00;99978.97;5172035;28;20039;-74
2022/06/09 04:58:15;;;;;;;15.77;9.07;;;;;;;16.27;100.00;99973.91;5180908;28;20097;-74
2022/06/09 05:00:46;;;;;;;12.27;8.07;;;;;;;16.19;100.00;99978.84;5180798;28;20025;-74
2022/06/09 05:03:16;;;;;;;11.55;8.20;;;;;;;16.27;100.00;99973.06;5181100;28;20357;-74
2022/06/09 05:05:49;;;;;;;13.23;7.82;;;;;;;16.29;100.00;99979.94;5181653;28;20412;-75
2022/06/09 05:08:19;;;;;;;12.32;8.05;;;;;;;16.19;100.00;99981.47;5180522;28;20029;-74
2022/06/09 05:10:49;;;;;;;14.15;8.05;;;;;;;16.16;100.00;99986.97;5175626;28;20461;-74
2022/06/09 05:13:19;;;;;;;14.20;7.78;;;;;;;16.26;100.00;99990.69;5167193;28;20038;-75
2022/06/09 05:15:52;;;;;;;13.13;8.10;;;;;;;16.30;100.00;99989.53;5159545;28;20030;-74
2022/06/09 05:18:27;;;;;;;13.40;7.70;;;;;;;16.28;100.00;99999.34;5159316;28;20029;-74
2022/06/09 05:20:58;;;;;;;9.60;7.60;;;;;;;16.35;100.00;99995.34;5164954;28;20128;-74
2022/06/09 05:23:29;;;;;;;14.23;7.70;;;;;;;16.52;100.00;100000.31;5154647;28;20017;-75
2022/06/09 05:26:02;;;;;;;13.60;7.38;;;;;;;16.66;100.00;100008.13;5173193;28;20056;-74
2022/06/09 05:28:32;;;;;;;11.77;6.72;;;;;;;16.81;100.00;100005.25;5179898;28;20392;-74
2022/06/09 05:31:03;;;;;;;11.32;6.60;;;;;;;16.80;100.00;100002.75;5180365;28;20022;-75
2022/06/09 05:33:33;;;;;;;11.38;7.60;;;;;;;16.58;100.00;100013.06;5180425;28;20022;-74
2022/06/09 05:36:04;;;;;;;9.85;6.45;;;;;;;16.62;100.00;100019.00;5172393;28;20033;-74
2022/06/09 05:47:02;;;;;;;9.13;6.28;;;;;;;17.53;100.00;100039.69;5177557;28;20095;-74
2022/06/09 05:49:32;;;;;;;10.45;6.45;;;;;;;17.34;100.00;100035.84;5178807;28;20026;-74
2022/06/09 05:52:03;;;;;;;11.45;6.57;;;;;;;17.23;100.00;100044.50;5178084;28;20084;-73
2022/06/09 05:54:33;;;;;;;11.15;5.97;;;;;;;17.36;100.00;100037.41;5170105;28;20022;-74
2022/06/09 05:57:03;;;;;;;9.18;6.35;;;;;;;17.36;100.00;100049.78;5168316;28;20045;-74
2022/06/09 05:59:34;;;;;;;9.95;6.00;;;;;;;17.71;100.00;100050.72;5167414;28;20061;-74
2022/06/09 06:02:05;;;;;;;10.55;6.20;;;;;;;18.00;100.00;100049.41;5180205;28;20013;-74
2022/06/09 06:04:36;;;;;;;11.05;6.00;;;;;;;17.80;100.00;100057.97;5179938;28;20025;-75
2022/06/09 06:07:07;;;;;;;8.95;5.72;;;;;;;18.20;100.00;100054.91;5179730;28;20080;-73
2022/06/09 06:09:37;;;;;;;7.63;5.05;;;;;;;18.53;100.00;100062.13;5176984;28;20121;-74
2022/06/09 06:12:08;;;;;;;10.63;6.28;;;;;;;18.51;100.00;100064.06;5173724;28;20029;-75
2022/06/09 06:14:38;;;;;;;10.50;6.22;;;;;;;19.05;100.00;100058.84;5176998;28;20109;-75
2022/06/09 06:17:08;;;;;;;11.35;6.25;;;;;;;19.06;100.00;100060.53;5180096;28;20030;-74
2022/06/09 06:19:39;;;;;;;10.55;6.25;;;;;;;19.39;99.49;100063.19;5172995;28;20100;-75
2022/06/09 06:22:09;;;;;;;9.52;6.07;;;;;;;19.23;99.88;100075.97;5166398;28;20480;-74
2022/06/09 06:24:40;;;;;;;10.65;6.38;;;;;;;19.47;98.80;100068.72;5166874;28;20030;-73
2022/06/09 06:27:10;;;;;;;12.35;6.63;;;;;;;19.37;98.31;100086.34;5176121;28;20025;-75
2022/06/09 06:29:40;;;;;;;11.93;5.95;;;;;;;20.42;94.80;100080.28;5179969;28;20022;-74
2022/06/09 06:32:10;;;;;;;10.93;6.18;;;;;;;20.17;92.75;100090.41;5179616;28;20022;-74
2022/06/09 06:34:41;;;;;;;10.98;5.32;;;;;;;19.63;98.04;100095.69;5179268;28;20305;-74
2022/06/09 06:37:11;;;;;;;11.25;6.15;;;;;;;19.02;100.00;100103.25;5166948;28;20457;-73
2022/06/09 06:39:41;;;;;;;10.05;6.03;;;;;;;18.67;100.00;100107.78;5175742;28;20030;-74
2022/06/09 06:42:12;;;;;;;13.25;7.00;;;;;;;18.92;100.00;100113.72;5168904;28;20022;-75
2022/06/09 06:44:42;;;;;;;11.77;6.85;;;;;;;18.53;100.00;100115.06;5177409;28;20021;-75
2022/06/09 06:47:12;;;;;;;10.52;6.82;;;;;;;18.56;100.00;100115.69;5178200;28;20432;-74
2022/06/09 06:49:43;;;;;;;14.00;7.40;;;;;;;18.31;100.00;100121.13;5179711;28;20033;-75
2022/06/09 06:52:13;;;;;;;14.68;7.60;;;;;;;18.16;100.00;100127.50;5179611;28;20607;-75
2022/06/09 06:54:43;;;;;;;13.32;7.57;;;;;;;18.12;100.00;100125.19;5169484;28;20026;-71
2022/06/09 06:57:13;;;;;;;14.50;7.63;;;;;;;18.20;100.00;100133.44;5175841;28;20065;-75
2022/06/09 06:59:44;;;;;;;12.02;7.43;;;;;;;18.16;100.00;100131.97;5179137;28;20506;-74
2022/06/09 07:02:14;;;;;;;12.90;7.40;;;;;;;18.05;100.00;100139.84;5178242;28;20045;-74
2022/06/09 07:04:45;;;;;;;15.05;8.10;;;;;;;18.06;100.00;100141.53;5173586;28;20040;-74
2022/06/09 07:07:15;;;;;;;14.02;8.15;;;;;;;17.71;100.00;100143.22;5181678;28;20117;-74
2022/06/09 07:09:46;;;;;;;14.70;7.22;;;;;;;17.99;100.00;100151.72;5179787;28;20267;-74
2022/06/09 07:12:17;;;;;;;13.55;7.65;;;;;;;18.04;100.00;100157.50;5174663;28;20033;-75
2022/06/09 07:14:47;;;;;;;12.73;7.55;;;;;;;17.87;100.00;100157.03;5179645;28;20060;-73
2022/06/09 07:17:17;;;;;;;13.05;8.27;;;;;;;17.78;100.00;100155.03;5182905;28;20049;-74
2022/06/09 07:19:48;;;;;;;15.90;8.30;;;;;;;17.90;100.00;100156.81;5164945;28;20467;-74
2022/06/09 07:22:19;;;;;;;12.55;8.05;;;;;;;18.10;100.00;100161.50;5183364;28;20499;-74
2022/06/09 07:24:50;;;;;;;17.10;9.13;;;;;;;17.87;100.00;100162.31;5173334;28;20053;-74
2022/06/09 07:27:20;;;;;;;15.93;8.95;;;;;;;17.90;100.00;100173.53;5179518;28;20574;-74
2022/06/09 07:29:51;;;;;;;15.98;9.10;;;;;;;17.81;100.00;100173.34;5182796;28;20075;-74
2022/06/09 07:32:22;;;;;;;15.80;9.40;;;;;;;17.99;100.00;100172.88;5182958;28;20068;-74
2022/06/09 07:34:52;;;;;;;18.83;10.02;;;;;;;17.67;100.00;100176.13;5182622;28;20527;-73
2022/06/09 07:37:23;;;;;;;17.92;9.82;;;;;;;17.92;100.00;100182.19;5182651;28;20148;-74
2022/06/09 07:39:53;;;;;;;18.60;9.93;;;;;;;17.99;100.00;100172.03;5177061;28;20033;-74
2022/06/09 07:42:23;;;;;;;16.90;9.20;;;;;;;18.11;100.00;100181.69;5171325;28;20030;-74
2022/06/09 07:44:54;;;;;;;13.00;9.07;;;;;;;17.80;100.00;100195.47;5180178;28;20439;-73
2022/06/09 07:47:25;;;;;;;16.00;8.68;;;;;;;17.81;100.00;100194.50;5173217;28;20034;-74
2022/06/09 07:49:55;;;;;;;14.55;8.30;;;;;;;17.88;100.00;100190.47;5181199;28;20020;-74
2022/06/09 07:52:25;;;;;;;16.58;8.15;;;;;;;18.03;100.00;100194.66;5181274;28;20118;-74
2022/06/09 07:54:56;;;;;;;11.63;7.63;;;;;;;17.94;100.00;100197.94;5172116;28;20334;-74
2022/06/09 07:57:26;;;;;;;16.75;8.30;;;;;;;18.11;100.00;100198.44;5178720;28;20021;-73
2022/06/09 07:59:57;;;;;;;12.05;7.70;;;;;;;18.22;100.00;100201.16;5183881;28;20026;-72
2022/06/09 08:02:27;;;;;;;14.05;6.95;;;;;;;18.33;99.32;100208.34;5183488;28;20109;-73
2022/06/09 08:04:57;;;;;;;14.75;7.20;;;;;;;18.21;100.00;100214.50;5181569;28;20537;-73
2022/06/09 08:07:28;;;;;;;14.15;6.93;;;;;;;18.17;100.00;100213.03;5180690;28;20047;-73
2022/06/09 08:09:58;;;;;;;13.60;6.55;;;;;;;18.19;99.75;100217.22;5178724;28;20037;-73
2022/06/09 08:12:28;;;;;;;13.18;6.30;;;;;;;18.01;100.00;100223.00;5171015;28;20129;-73
2022/06/09 08:14:59;;;;;;;14.88;7.03;;;;;;;18.14;99.73;100234.41;5179173;28;20387;-73
2022/06/09 08:17:29;;;;;;;12.48;6.32;;;;;;;18.10;100.00;100232.91;5178595;28;20037;-73
2022/06/09 08:19:59;;;;;;;15.60;6.57;;;;;;;18.17;98.99;100228.91;5181653;28;20154;-72
2022/06/09 08:22:30;;;;;;;13.20;7.18;;;;;;;18.20;100.00;100233.97;5214440;22;20065;-73
2022/06/09 08:25:00;;;;;;;13.73;6.85;;;;;;;18.35;98.55;100219.66;5201191;28;20036;-73
2022/06/09 08:27:30;;;;;;;14.68;7.18;;;;;;;18.42;97.65;100234.13;5210651;28;20029;-73
2022/06/09 08:30:01;;;;;;;11.55;6.53;;;;;;;18.73;97.36;100229.13;5210400;28;20032;-73
2022/06/09 08:32:32;;;;;;;14.45;6.43;;;;;;;18.83;95.03;100235.41;5213591;28;20040;-73
2022/06/09 08:35:04;;;;;;;12.88;6.22;;;;;;;18.82;94.43;100239.88;5210146;28;20279;-73
2022/06/09 08:37:35;;;;;;;11.48;5.97;;;;;;;18.74;92.64;100242.22;5206093;28;20094;-73
2022/06/09 08:40:06;;;;;;;14.45;6.03;;;;;;;18.83;93.99;100246.84;5213855;28;20033;-72
2022/06/09 08:43:01;;;;;;;15.10;6.15;;;;;;;18.76;93.61;100245.59;5210146;28;20501;-73
2022/06/09 08:45:36;;;;;;;12.98;6.38;;;;;;;18.53;95.45;100244.78;5209747;28;20163;-73
2022/06/09 08:48:31;;;;;;;11.15;6.25;;;;;;;18.40;94.95;100251.91;5206035;28;20573;-71
2022/06/09 08:51:08;;;;;;;9.18;5.85;;;;;;;18.51;95.79;100265.22;5208976;28;20095;-73
2022/06/09 08:53:45;;;;;;;15.15;6.90;;;;;;;18.39;96.32;100258.16;5201116;28;20044;-73
2022/06/09 08:56:29;;;;;;;12.52;6.57;;;;;;;18.43;96.63;100267.56;5203398;28;20083;-72
2022/06/09 08:59:13;;;;;;;13.13;6.28;;;;;;;18.71;93.89;100265.44;5208941;28;20540;-72
2022/06/09 09:01:48;;;;;;;12.82;5.53;;;;;;;18.71;91.28;100268.09;5189111;28;20029;-72
2022/06/09 09:04:48;;;;;;;9.85;5.38;;;;;;;18.52;90.58;100278.31;5210339;28;20082;-73
2022/06/09 09:07:25;;;;;;;10.68;5.57;;;;;;;18.79;92.51;100274.50;5207401;28;20037;-73
2022/06/09 09:10:12;;;;;;;10.38;5.72;;;;;;;18.78;89.60;100280.75;5210211;28;20497;-72
2022/06/09 09:13:15;;;;;;;10.23;5.68;;;;;;;18.99;89.30;100278.34;5205578;28;20049;-72
2022/06/09 09:15:52;;;;;;;11.07;5.88;;;;;;;19.41;89.12;100275.97;5206654;28;20102;-73
2022/06/09 09:18:30;;;;;;;8.90;5.93;;;;;;;19.67;86.50;100288.09;5209932;28;20033;-73
2022/06/09 09:21:12;;;;;;;10.48;4.90;;;;;;;20.78;84.46;100279.06;5212467;28;20382;-72
2022/06/09 09:23:59;;;;;;;9.02;5.30;;;;;;;20.68;85.02;100289.59;5203765;28;20502;-72
2022/06/09 09:26:38;;;;;;;9.65;5.32;;;;;;;20.73;85.05;100295.38;5205621;28;20024;-73
2022/06/09 09:29:16;;;;;;;10.63;5.55;;;;;;;20.10;85.73;100309.50;5206699;28;20025;-73
2022/06/09 09:32:09;;;;;;;12.52;6.38;;;;;;;20.19;86.85;100303.44;5210657;28;20112;-73
2022/06/09 09:34:45;;;;;;;10.55;5.70;;;;;;;20.10;86.40;100302.34;5206785;28;20039;-73
2022/06/09 09:37:47;;;;;;;10.30;5.68;;;;;;;20.96;83.29;100301.50;5210795;28;20036;-73
2022/06/09 09:40:34;;;;;;;9.23;4.93;;;;;;;21.50;81.09;100288.91;5189883;28;20512;-72
2022/06/09 09:43:09;;;;;;;9.80;5.20;;;;;;;21.30;80.85;100295.94;5198750;28;20451;-73
2022/06/09 09:45:44;;;;;;;8.02;4.60;;;;;;;22.25;78.30;100288.50;5212349;28;20112;-73
2022/06/09 09:48:17;;;;;;;8.82;4.20;;;;;;;23.66;74.39;100286.97;5209183;28;20029;-73
2022/06/09 09:51:10;;;;;;;7.22;3.80;;;;;;;23.15;72.78;100289.13;5211041;28;20064;-74
2022/06/09 09:53:51;;;;;;;9.70;3.40;;;;;;;22.67;74.19;100284.72;5203735;28;20541;-73
2022/06/09 09:56:21;;;;;;;8.25;3.08;;;;;;;23.75;73.94;100280.78;5204082;28;20098;-74
2022/06/09 09:58:57;;;;;;;6.40;3.20;;;;;;;23.58;73.01;100286.00;5209787;28;20025;-74
2022/06/09 10:08:35;;;;;;;4.78;2.95;;;;;;;23.84;72.31;100290.59;5209505;28;20021;-73
2022/06/09 10:10:15;;;;;;;9.13;3.70;;;;;;;22.49;75.78;100299.69;5210065;28;20082;-73
2022/06/09 10:12:46;;;;;;;8.00;4.03;;;;;;;21.38;77.90;100297.94;5207761;28;20419;-73
2022/06/09 10:15:20;;;;;;;9.60;5.00;;;;;;;21.60;79.33;100305.78;5210494;28;20033;-73
2022/06/09 10:17:59;;;;;;;9.35;4.57;;;;;;;21.92;78.91;100302.06;5211038;28;20033;-74
2022/06/09 10:20:35;;;;;;;8.93;4.38;;;;;;;22.00;78.64;100302.28;5210453;28;20025;-73
2022/06/09 10:23:09;;;;;;;8.70;4.70;;;;;;;21.11;80.00;100303.75;5204283;28;20072;-74
2022/06/09 10:25:54;;;;;;;10.95;4.78;;;;;;;21.06;82.58;100310.41;5200536;28;20022;-73
2022/06/09 10:28:34;;;;;;;7.57;4.43;;;;;;;21.12;82.33;100312.56;5210449;28;20024;-73
2022/06/09 10:31:36;;;;;;;9.57;4.03;;;;;;;21.50;81.19;100315.50;5184823;28;20091;-74
2022/06/09 10:34:12;;;;;;;8.60;3.90;;;;;;;21.29;80.23;100320.84;5204510;28;20517;-73
2022/06/09 10:36:46;;;;;;;8.15;3.78;;;;;;;21.75;80.92;100310.66;5209815;28;20040;-73
2022/06/09 10:39:31;;;;;;;6.20;3.78;;;;;;;21.89;79.92;100312.16;5212226;28;20036;-73
2022/06/09 10:42:25;;;;;;;10.02;4.22;;;;;;;22.44;78.50;100306.41;5214349;28;20036;-73
2022/06/09 10:45:17;;;;;;;8.18;3.80;;;;;;;22.40;75.74;100302.31;5212085;28;20424;-74
2022/06/09 10:57:28;;;;;;;5.80;3.20;;;;;;;21.60;78.22;100321.75;5205028;28;20516;-74
2022/06/09 11:00:13;;;;;;;9.07;3.60;;;;;;;21.36;79.88;100321.13;5211640;28;20055;-73
2022/06/09 11:02:54;;;;;;;6.80;3.40;;;;;;;21.96;82.19;100316.81;5208877;28;20048;-73
2022/06/09 11:05:40;;;;;;;9.70;4.43;;;;;;;22.12;80.57;100319.00;5213407;28;20039;-74
2022/06/09 11:08:30;;;;;;;7.72;3.70;;;;;;;21.87;79.04;100320.28;5207927;28;20028;-74
2022/06/09 11:11:29;;;;;;;8.25;3.50;;;;;;;22.21;78.59;100318.16;5212576;28;20488;-74
2022/06/09 11:14:13;;;;;;;8.30;4.00;;;;;;;22.46;77.23;100315.09;5213789;28;20128;-73
2022/06/09 11:16:53;;;;;;;6.10;3.70;;;;;;;22.46;78.48;100315.91;5209391;28;20025;-73
2022/06/09 11:19:23;;;;;;;6.50;3.45;;;;;;;22.82;79.68;100326.00;5211832;28;21025;-74
2022/06/09 11:22:00;;;;;;;8.70;3.22;;;;;;;22.73;76.70;100321.47;5173875;28;1135383;-74
2022/06/09 11:24:56;;;;;;;8.93;2.97;;;;;;;23.01;76.64;100326.00;5204445;28;20033;-73
2022/06/09 11:27:45;;;;;;;;;;;;;;;22.86;75.82;100322.88;5210440;28;20083;-74
2022/06/09 11:30:36;;;;;;;6.40;3.22;;;;;;;22.79;76.18;100329.75;5208926;28;20514;-74
2022/06/09 11:33:37;;;;;;;7.10;2.85;;;;;;;22.75;76.09;100325.69;5207453;28;20030;-74
2022/06/09 11:36:29;;;;;;;5.85;2.67;;;;;;;22.58;77.90;100335.31;5207096;28;20029;-73
2022/06/09 11:39:30;;;;;;;5.22;2.33;;;;;;;22.03;77.57;100341.06;5210684;28;20112;-74
2022/06/09 11:42:12;;;;;;;5.90;2.80;;;;;;;22.14;78.29;100335.66;5214161;28;20047;-74
2022/06/09 11:44:45;;;;;;;6.63;2.70;;;;;;;22.69;78.46;100342.22;5191443;28;20049;-74
2022/06/09 11:47:19;;;;;;;5.32;2.72;;;;;;;22.92;73.96;100343.69;5209257;28;20049;-74
2022/06/09 11:49:53;;;;;;;6.70;2.50;;;;;;;22.76;75.59;100338.03;5205096;28;20402;-74
2022/06/09 11:52:35;;;;;;;5.78;2.50;;;;;;;22.30;75.41;100346.69;5204131;28;20037;-74
2022/06/09 11:55:57;;;;;;;4.43;2.17;;;;;;;21.90;75.05;100345.78;5201734;28;20065;-74
2022/06/09 11:58:33;;;;;;;4.25;2.10;;;;;;;22.05;75.35;100347.13;5196967;28;20083;-73
2022/06/09 12:01:16;;;;;;;6.38;2.53;;;;;;;22.19;76.21;100347.63;5198419;28;20079;-74
2022/06/09 12:04:23;;;;;;;5.88;2.55;;;;;;;22.55;74.78;100348.91;5202167;28;20034;-74
2022/06/09 12:07:10;;;;;;;4.15;1.80;;;;;;;23.00;73.45;100345.66;5209708;28;20036;-74
2022/06/09 12:10:03;;;;;;;6.47;2.00;;;;;;;23.22;73.85;100346.25;5206820;28;20105;-74
2022/06/09 12:12:40;;;;;;;6.40;2.25;;;;;;;23.47;72.49;100348.38;5195659;28;20030;-74
2022/06/09 12:15:21;;;;;;;5.18;2.08;;;;;;;23.34;71.54;100355.81;5208587;28;20434;-73
2022/06/09 12:18:23;;;;;;;3.58;1.90;;;;;;;23.34;71.89;100344.31;5207337;28;20072;-74
2022/06/09 12:21:02;;;;;;;6.05;2.10;;;;;;;23.23;73.76;100352.44;5208275;28;20128;-74